Village of Lakewood, Illinois
Current Conditions -  °F | °C
As of 11:52 AM on Monday 26 Jan 2015 (Local Time) from KDPA Reporting Station
Overcast Overcast  
Wind Chill: 17°   Ceiling: 6000
Heat Index: 25°   Visibility: 10mi
Dew Point: 17°   Wind: 7mph
Humidity: 72%   Direction: 190°S
Pressure: 29.89"   Gusts: NA
Location:  42.2284°N, 88.3202°W
Report Text: KDPA 261752Z 19006KT 10SM OVC060 M04/M08 A2989 RMK AO2 SLP133 T10391083 11039 21106 58020
Loading
Personal Weather Stations






























Interactive Weather Map New forecast layout! Learn more

10-Day Weather Forecast

Advertisements
Track Severe Weather on mobile